createdAt,value
2023-05-12T00:00:16.446Z,66.35
2023-05-12T00:02:46.106Z,66.21
2023-05-12T00:05:13.856Z,66.64
2023-05-12T00:07:42.778Z,65.60
2023-05-12T00:10:10.889Z,65.49
2023-05-12T00:12:38.237Z,65.92
2023-05-12T00:15:06.879Z,65.92
2023-05-12T00:17:34.978Z,65.38
2023-05-12T00:20:02.706Z,65.35
2023-05-12T00:22:33.517Z,65.01
2023-05-12T00:25:02.331Z,65.78
2023-05-12T00:27:32.204Z,65.45
2023-05-12T00:29:59.730Z,65.24
2023-05-12T00:32:27.517Z,65.51
2023-05-12T00:34:55.263Z,65.38
2023-05-12T00:37:22.742Z,65.25
2023-05-12T00:39:50.257Z,65.10
2023-05-12T00:42:19.049Z,64.71
2023-05-12T00:44:47.364Z,64.99
2023-05-12T00:47:15.009Z,65.04
2023-05-12T00:49:42.825Z,65.07
2023-05-12T00:52:10.115Z,65.04
2023-05-12T00:54:40.242Z,64.65
2023-05-12T00:57:08.396Z,64.41
2023-05-12T00:59:37.606Z,64.58
2023-05-12T01:02:06.233Z,64.63
2023-05-12T01:04:35.784Z,64.80
2023-05-12T01:07:08.896Z,64.81
2023-05-12T01:09:36.814Z,64.87
2023-05-12T01:12:05.260Z,64.62
2023-05-12T01:14:34.335Z,64.19
2023-05-12T01:17:08.667Z,64.56
2023-05-12T01:19:42.123Z,64.08
2023-05-12T01:22:12.432Z,63.92
2023-05-12T01:24:46.969Z,63.88
2023-05-12T01:27:16.813Z,63.96
2023-05-12T01:29:47.277Z,63.48
2023-05-12T01:32:17.080Z,63.45
2023-05-12T01:34:45.110Z,63.49
2023-05-12T01:37:12.957Z,63.14
2023-05-12T01:39:41.312Z,63.12
2023-05-12T01:42:11.499Z,63.62
2023-05-12T01:44:40.343Z,63.47
2023-05-12T01:47:10.086Z,63.33
2023-05-12T01:49:38.735Z,63.01
2023-05-12T01:52:09.024Z,63.00
2023-05-12T01:54:36.458Z,62.74
2023-05-12T01:57:04.155Z,62.82
2023-05-12T01:59:31.756Z,63.17
2023-05-12T02:02:01.580Z,62.82
2023-05-12T02:04:31.523Z,63.29
2023-05-12T02:07:00.147Z,63.17
2023-05-12T02:09:27.898Z,63.20
2023-05-12T02:11:59.659Z,62.78
2023-05-12T02:14:27.208Z,62.79
2023-05-12T02:16:55.735Z,63.06
2023-05-12T02:19:26.735Z,62.84
2023-05-12T02:21:57.696Z,62.94
2023-05-12T02:24:25.124Z,62.73
2023-05-12T02:26:52.959Z,62.86
2023-05-12T02:29:20.735Z,63.25
2023-05-12T02:31:49.225Z,63.05
2023-05-12T02:34:17.846Z,63.03
2023-05-12T02:36:46.696Z,62.90
2023-05-12T02:39:14.231Z,62.72
2023-05-12T02:44:09.132Z,63.32
2023-05-12T02:46:37.430Z,62.86
2023-05-12T02:49:04.997Z,62.96
2023-05-12T02:51:32.366Z,62.72
2023-05-12T02:54:01.573Z,62.76
2023-05-12T02:56:29.979Z,62.56
2023-05-12T02:58:58.224Z,62.53
2023-05-12T03:01:25.870Z,62.58
2023-05-12T03:03:53.346Z,62.61
2023-05-12T03:06:20.762Z,62.36
2023-05-12T03:08:48.341Z,61.98
2023-05-12T03:11:17.155Z,61.53
2023-05-12T03:13:44.638Z,61.53
2023-05-12T03:16:12.676Z,61.49
2023-05-12T03:18:40.164Z,61.17
2023-05-12T03:21:07.685Z,61.49
2023-05-12T03:23:35.587Z,61.39
2023-05-12T03:26:03.150Z,61.29
2023-05-12T03:28:32.517Z,61.44
2023-05-12T03:31:00.160Z,60.95
2023-05-12T03:33:27.726Z,60.73
2023-05-12T03:35:55.136Z,60.49
2023-05-12T03:38:23.774Z,60.85
2023-05-12T03:40:54.342Z,60.83
2023-05-12T03:43:21.827Z,60.10
2023-05-12T03:45:51.085Z,60.17
2023-05-12T03:48:18.448Z,60.10
2023-05-12T03:50:45.879Z,59.91
2023-05-12T03:53:13.288Z,59.58
2023-05-12T03:55:41.308Z,59.32
2023-05-12T03:58:11.736Z,59.49
2023-05-12T04:00:39.084Z,58.96
2023-05-12T04:03:09.060Z,59.02
2023-05-12T04:05:39.560Z,58.68
2023-05-12T04:08:07.402Z,58.55
2023-05-12T04:10:39.129Z,58.35
2023-05-12T04:13:06.626Z,58.04
2023-05-12T04:15:34.346Z,57.95
2023-05-12T04:18:02.687Z,58.05
2023-05-12T04:20:31.640Z,58.19
2023-05-12T04:22:58.998Z,57.84
2023-05-12T04:25:26.637Z,57.79
2023-05-12T04:27:54.074Z,57.91
2023-05-12T04:30:22.315Z,57.96
2023-05-12T04:32:50.462Z,57.88
2023-05-12T04:35:17.936Z,57.55
2023-05-12T04:37:46.628Z,57.24
2023-05-12T04:40:14.225Z,57.25
2023-05-12T04:42:41.464Z,57.31
2023-05-12T04:45:11.528Z,57.29
2023-05-12T04:47:39.060Z,56.98
2023-05-12T04:50:07.564Z,56.68
2023-05-12T04:52:34.861Z,56.58
2023-05-12T04:55:04.126Z,56.37
2023-05-12T04:57:32.059Z,56.43
2023-05-12T05:00:04.824Z,56.67
2023-05-12T05:02:36.555Z,56.15
2023-05-12T05:05:04.664Z,56.01
2023-05-12T05:07:32.743Z,55.70
2023-05-12T05:10:00.464Z,55.59
2023-05-12T05:12:29.209Z,55.32
2023-05-12T05:14:57.061Z,55.00
2023-05-12T05:17:25.533Z,54.67
2023-05-12T05:19:58.183Z,54.38
2023-05-12T05:22:29.890Z,54.17
2023-05-12T05:24:57.346Z,53.38
2023-05-12T05:27:24.988Z,53.15
2023-05-12T05:29:54.396Z,52.88
2023-05-12T05:32:22.049Z,52.57
2023-05-12T05:34:50.445Z,52.43
2023-05-12T05:37:18.118Z,51.91
2023-05-12T05:39:45.610Z,51.42
2023-05-12T05:42:14.089Z,50.88
2023-05-12T05:44:41.543Z,50.68
2023-05-12T05:47:10.548Z,50.59
2023-05-12T05:49:38.059Z,50.00
2023-05-12T05:52:06.643Z,49.45
2023-05-12T05:54:34.229Z,49.25
2023-05-12T05:57:03.182Z,48.95
2023-05-12T05:59:31.240Z,48.66
2023-05-12T06:01:58.885Z,48.29
2023-05-12T06:04:28.066Z,47.85
2023-05-12T06:06:55.799Z,47.23
2023-05-12T06:09:23.096Z,47.18
2023-05-12T06:11:50.602Z,46.82
2023-05-12T06:14:17.899Z,46.71
2023-05-12T06:16:45.448Z,46.55
2023-05-12T06:19:13.092Z,46.17
2023-05-12T06:21:43.723Z,46.04
2023-05-12T06:24:11.017Z,45.30
2023-05-12T06:26:38.462Z,45.16
2023-05-12T06:29:07.724Z,43.29
2023-05-12T06:31:35.370Z,42.42
2023-05-12T06:34:03.270Z,42.35
2023-05-12T06:36:31.006Z,41.61
2023-05-12T06:38:59.716Z,40.33
2023-05-12T06:41:27.245Z,39.62
2023-05-12T06:43:54.771Z,39.13
2023-05-12T06:46:28.628Z,37.94
2023-05-12T06:48:55.958Z,37.17
2023-05-12T06:51:23.525Z,36.18
2023-05-12T06:53:51.013Z,36.20
2023-05-12T06:56:20.105Z,35.39
2023-05-12T06:58:53.190Z,35.38
2023-05-12T07:01:23.372Z,34.53
2023-05-12T07:03:51.057Z,34.17
2023-05-12T07:06:18.624Z,33.74
2023-05-12T07:08:46.165Z,33.17
2023-05-12T07:11:13.714Z,32.84
2023-05-12T07:13:42.559Z,32.56
2023-05-12T07:16:10.522Z,32.43
2023-05-12T07:18:38.381Z,31.19
2023-05-12T07:21:06.086Z,30.63
2023-05-12T07:23:35.019Z,30.45
2023-05-12T07:26:03.568Z,30.66
2023-05-12T07:28:38.232Z,29.98
2023-05-12T07:31:08.233Z,30.15
2023-05-12T07:33:36.663Z,29.67
2023-05-12T07:36:05.084Z,28.82
2023-05-12T07:38:32.871Z,28.80
2023-05-12T07:41:00.740Z,28.26
2023-05-12T07:43:28.394Z,28.50
2023-05-12T07:45:56.336Z,28.68
2023-05-12T07:48:25.139Z,28.45
2023-05-12T07:50:53.127Z,28.27
2023-05-12T07:53:20.620Z,28.55
2023-05-12T07:55:48.006Z,28.35
2023-05-12T07:58:15.415Z,27.74
2023-05-12T08:00:43.529Z,27.96
2023-05-12T08:03:10.933Z,27.74
2023-05-12T08:05:39.945Z,27.98
2023-05-12T08:08:07.385Z,28.08
2023-05-12T08:10:34.925Z,28.09
2023-05-12T08:13:02.218Z,28.54
2023-05-12T08:15:29.640Z,28.24
2023-05-12T08:17:56.951Z,28.27
2023-05-12T08:20:24.511Z,28.75
2023-05-12T08:22:53.656Z,27.67
2023-05-12T08:25:21.275Z,28.15
2023-05-12T08:27:48.834Z,28.38
2023-05-12T08:30:16.784Z,28.01
2023-05-12T08:32:44.100Z,28.23
2023-05-12T08:35:11.456Z,27.93
2023-05-12T08:37:39.057Z,28.17
2023-05-12T08:40:14.846Z,28.14
2023-05-12T08:42:44.262Z,27.72
2023-05-12T08:45:12.298Z,28.13
2023-05-12T08:47:41.182Z,28.67
2023-05-12T08:50:10.487Z,28.72
2023-05-12T08:52:39.286Z,28.50
2023-05-12T08:55:10.075Z,28.61
2023-05-12T08:57:39.474Z,28.38
2023-05-12T09:00:11.198Z,27.85
2023-05-12T09:02:52.114Z,27.25
2023-05-12T09:05:22.175Z,26.82
2023-05-12T09:07:50.483Z,26.48
2023-05-12T09:10:34.433Z,26.62
2023-05-12T09:13:10.753Z,26.19
2023-05-12T09:15:44.985Z,25.86
2023-05-12T09:18:12.553Z,25.97
2023-05-12T09:20:40.121Z,25.32
2023-05-12T09:23:15.086Z,25.28
2023-05-12T09:25:44.064Z,25.52
2023-05-12T09:28:11.630Z,25.87
2023-05-12T09:30:42.547Z,25.47
2023-05-12T09:33:11.809Z,25.36
2023-05-12T09:35:41.575Z,25.08
2023-05-12T09:38:10.156Z,25.25
2023-05-12T09:40:38.071Z,24.97
2023-05-12T09:43:08.178Z,24.46
2023-05-12T09:45:36.467Z,24.60
2023-05-12T09:48:09.911Z,24.56
2023-05-12T09:50:47.697Z,24.48
2023-05-12T09:53:20.615Z,24.92
2023-05-12T09:55:48.748Z,24.61
2023-05-12T09:58:19.605Z,24.86
2023-05-12T10:03:18.821Z,24.80
2023-05-12T10:05:50.141Z,24.63
2023-05-12T10:08:24.586Z,24.71
2023-05-12T10:10:56.437Z,24.54
2023-05-12T10:13:26.515Z,25.02
2023-05-12T10:15:59.443Z,25.29
2023-05-12T10:18:27.705Z,25.63
2023-05-12T10:20:57.482Z,25.70
2023-05-12T10:23:26.955Z,26.22
2023-05-12T10:25:54.715Z,26.34
2023-05-12T10:28:22.589Z,26.44
2023-05-12T10:30:51.926Z,26.19
2023-05-12T10:33:19.792Z,26.58
2023-05-12T10:35:49.625Z,26.41
2023-05-12T10:38:17.505Z,26.50
2023-05-12T10:40:58.192Z,25.92
2023-05-12T10:43:39.872Z,25.77
2023-05-12T10:46:10.510Z,25.56
2023-05-12T10:48:50.868Z,25.09
2023-05-12T10:51:21.526Z,24.61
2023-05-12T10:53:54.570Z,24.46
2023-05-12T10:56:24.664Z,24.71
2023-05-12T10:59:17.812Z,24.28
2023-05-12T11:02:04.037Z,24.48
2023-05-12T11:04:38.206Z,24.89
2023-05-12T11:07:08.214Z,25.00
2023-05-12T11:09:47.067Z,25.29
2023-05-12T11:12:21.630Z,25.50
2023-05-12T11:14:49.637Z,26.02
2023-05-12T11:17:18.687Z,25.98
2023-05-12T11:19:48.143Z,26.41
2023-05-12T11:22:19.342Z,26.03
2023-05-12T11:24:47.977Z,26.27
2023-05-12T11:27:18.222Z,26.38
2023-05-12T11:29:55.414Z,26.60
2023-05-12T11:32:24.762Z,26.82
2023-05-12T11:34:52.803Z,26.80
2023-05-12T11:37:21.493Z,27.56
2023-05-12T11:39:49.341Z,27.27
2023-05-12T11:42:19.831Z,27.24
2023-05-12T11:44:50.007Z,27.39
2023-05-12T11:47:20.748Z,27.52
2023-05-12T11:49:51.599Z,27.72
2023-05-12T11:52:20.512Z,27.62
2023-05-12T11:54:52.055Z,26.92
2023-05-12T11:57:27.220Z,26.55
2023-05-12T11:59:58.781Z,26.33
2023-05-12T12:02:26.588Z,25.98
2023-05-12T12:04:55.816Z,25.95
2023-05-12T12:07:31.769Z,25.42
2023-05-12T12:09:59.937Z,24.94
2023-05-12T12:12:27.226Z,25.43
2023-05-12T12:15:00.074Z,25.49
2023-05-12T12:17:31.003Z,25.24
2023-05-12T12:20:00.011Z,25.39
2023-05-12T12:22:27.477Z,25.21
2023-05-12T12:24:54.851Z,25.12
2023-05-12T12:27:22.541Z,24.20
2023-05-12T12:29:50.462Z,24.54
2023-05-12T12:32:17.882Z,24.48
2023-05-12T12:34:46.486Z,24.30
2023-05-12T12:37:15.309Z,24.14
2023-05-12T12:39:42.775Z,24.30
2023-05-12T12:42:10.254Z,23.91
2023-05-12T12:44:37.491Z,24.22
2023-05-12T12:47:05.556Z,24.57
2023-05-12T12:49:32.911Z,24.92
2023-05-12T12:52:00.401Z,25.01
2023-05-12T12:54:29.482Z,24.78
2023-05-12T12:56:56.968Z,24.70
2023-05-12T12:59:24.619Z,24.68
2023-05-12T13:01:52.439Z,25.02
2023-05-12T13:04:23.142Z,24.77
2023-05-12T13:06:50.695Z,24.90
2023-05-12T13:09:19.954Z,24.79
2023-05-12T13:11:50.384Z,24.79
2023-05-12T13:14:17.729Z,24.65
2023-05-12T13:16:46.058Z,23.82
2023-05-12T13:19:13.942Z,23.62
2023-05-12T13:21:42.053Z,24.06
2023-05-12T13:24:09.309Z,23.74
2023-05-12T13:26:36.893Z,23.93
2023-05-12T13:29:05.798Z,24.26
2023-05-12T13:31:33.189Z,24.25
2023-05-12T13:34:00.641Z,24.43
2023-05-12T13:36:28.724Z,24.58
2023-05-12T13:38:56.013Z,24.67
2023-05-12T13:41:23.367Z,24.75
2023-05-12T13:43:50.863Z,24.63
2023-05-12T13:46:19.660Z,24.56
2023-05-12T13:48:48.066Z,24.73
2023-05-12T13:51:15.725Z,24.73
2023-05-12T13:53:43.233Z,24.96
2023-05-12T13:56:17.496Z,25.30
2023-05-12T13:58:45.165Z,24.89
2023-05-12T14:01:12.836Z,24.94
2023-05-12T14:03:42.219Z,24.72
2023-05-12T14:06:09.908Z,24.22
2023-05-12T14:08:37.167Z,24.25
2023-05-12T14:11:05.186Z,24.01
2023-05-12T14:13:32.600Z,23.74
2023-05-12T14:16:00.268Z,23.25
2023-05-12T14:18:28.032Z,23.60
2023-05-12T14:20:57.488Z,23.68
2023-05-12T14:23:24.946Z,24.13
2023-05-12T14:25:52.436Z,24.43
2023-05-12T14:28:20.109Z,24.50
2023-05-12T14:30:48.825Z,24.36
2023-05-12T14:33:16.386Z,24.55
2023-05-12T14:35:52.864Z,24.70
2023-05-12T14:38:28.560Z,24.73
2023-05-12T14:40:55.962Z,25.08
2023-05-12T14:43:23.424Z,25.54
2023-05-12T14:45:57.816Z,25.44
2023-05-12T14:48:28.261Z,25.83
2023-05-12T14:50:56.816Z,26.46
2023-05-12T14:53:24.371Z,26.30
2023-05-12T14:55:53.240Z,26.73
2023-05-12T14:58:24.464Z,26.73
2023-05-12T15:00:52.282Z,26.54
2023-05-12T15:03:21.297Z,26.42
2023-05-12T15:06:04.934Z,26.48
2023-05-12T15:08:34.052Z,26.18
2023-05-12T15:11:03.002Z,26.12
2023-05-12T15:13:30.361Z,26.24
2023-05-12T15:15:57.827Z,25.80
2023-05-12T15:18:25.531Z,25.83
2023-05-12T15:20:52.851Z,25.70
2023-05-12T15:23:20.451Z,25.40
2023-05-12T15:25:49.330Z,25.80
2023-05-12T15:28:18.051Z,25.84
2023-05-12T15:30:53.994Z,25.99
2023-05-12T15:33:21.352Z,25.97
2023-05-12T15:35:48.573Z,26.23
2023-05-12T15:38:33.334Z,25.98
2023-05-12T15:41:00.837Z,26.43
2023-05-12T15:43:30.487Z,26.81
2023-05-12T15:45:58.173Z,27.31
2023-05-12T15:48:25.792Z,27.64
2023-05-12T15:50:53.220Z,27.65
2023-05-12T15:53:21.068Z,27.59
2023-05-12T15:55:50.510Z,27.66
2023-05-12T15:58:17.885Z,27.99
2023-05-12T16:00:46.676Z,28.13
2023-05-12T16:03:14.159Z,27.84
2023-05-12T16:05:41.967Z,28.18
2023-05-12T16:08:09.457Z,28.59
2023-05-12T16:10:36.930Z,28.57
2023-05-12T16:13:04.298Z,28.57
2023-05-12T16:15:31.748Z,28.79
2023-05-12T16:18:00.722Z,28.55
2023-05-12T16:20:29.074Z,28.51
2023-05-12T16:22:56.656Z,28.53
2023-05-12T16:25:24.158Z,28.96
2023-05-12T16:27:51.688Z,28.87
2023-05-12T16:30:20.386Z,29.11
2023-05-12T16:32:48.177Z,29.22
2023-05-12T16:35:17.788Z,29.59
2023-05-12T16:37:45.201Z,29.69
2023-05-12T16:40:12.995Z,29.79
2023-05-12T16:42:40.561Z,29.89
2023-05-12T16:45:09.364Z,30.21
2023-05-12T16:47:36.924Z,30.34
2023-05-12T16:50:05.108Z,30.13
2023-05-12T16:52:37.567Z,30.16
2023-05-12T16:55:05.844Z,30.36
2023-05-12T16:58:21.798Z,30.51
2023-05-12T17:02:02.183Z,30.68
2023-05-12T17:04:40.822Z,30.84
2023-05-12T17:11:05.356Z,31.20
2023-05-12T17:13:35.850Z,31.21
2023-05-12T17:16:03.289Z,31.33
2023-05-12T17:18:30.917Z,31.51
2023-05-12T17:20:58.983Z,31.58
2023-05-12T17:23:26.969Z,31.25
2023-05-12T17:25:54.507Z,31.41
2023-05-12T17:28:23.294Z,31.56
2023-05-12T17:30:50.638Z,31.77
2023-05-12T17:33:18.110Z,31.91
2023-05-12T17:35:53.534Z,32.10
2023-05-12T17:38:31.381Z,32.12
2023-05-12T17:40:58.816Z,32.31
2023-05-12T17:43:28.336Z,32.33
2023-05-12T17:45:56.044Z,32.39
2023-05-12T17:48:25.579Z,32.48
2023-05-12T17:50:53.550Z,32.77
2023-05-12T17:53:20.889Z,33.03
2023-05-12T17:55:48.217Z,33.04
2023-05-12T17:58:15.791Z,33.28
2023-05-12T18:00:44.762Z,33.34
2023-05-12T18:03:12.393Z,33.53
2023-05-12T18:05:40.037Z,33.68
2023-05-12T18:08:08.156Z,33.64
2023-05-12T18:10:36.079Z,33.69
2023-05-12T18:13:03.666Z,33.88
2023-05-12T18:15:30.991Z,34.16
2023-05-12T18:18:00.760Z,34.22
2023-05-12T18:20:28.410Z,34.62
2023-05-12T18:22:55.986Z,34.38
2023-05-12T18:25:23.531Z,34.40
2023-05-12T18:27:51.472Z,34.78
2023-05-12T18:30:19.064Z,35.16
2023-05-12T18:32:46.538Z,35.57
2023-05-12T18:35:15.424Z,35.64
2023-05-12T18:37:42.969Z,36.08
2023-05-12T18:40:11.317Z,36.13
2023-05-12T18:42:38.754Z,36.27
2023-05-12T18:45:07.512Z,35.86
2023-05-12T18:47:34.870Z,35.99
2023-05-12T18:50:02.325Z,36.58
2023-05-12T18:52:33.684Z,37.06
2023-05-12T18:55:01.339Z,37.09
2023-05-12T18:57:28.657Z,37.12
2023-05-12T18:59:56.031Z,37.37
2023-05-12T19:02:23.391Z,37.31
2023-05-12T19:04:50.956Z,37.36
2023-05-12T19:07:18.327Z,37.84
2023-05-12T19:09:47.070Z,37.96
2023-05-12T19:12:14.583Z,38.15
2023-05-12T19:14:43.272Z,38.23
2023-05-12T19:17:11.010Z,38.21
2023-05-12T19:19:38.511Z,38.41
2023-05-12T19:22:06.368Z,38.58
2023-05-12T19:24:34.909Z,38.65
2023-05-12T19:27:03.821Z,39.11
2023-05-12T19:29:31.434Z,39.22
2023-05-12T19:31:58.872Z,39.01
2023-05-12T19:34:27.035Z,39.40
2023-05-12T19:36:56.129Z,39.43
2023-05-12T19:39:23.837Z,39.56
2023-05-12T19:41:51.779Z,39.97
2023-05-12T19:44:20.742Z,39.97
2023-05-12T19:46:48.104Z,40.41
2023-05-12T19:49:15.732Z,41.21
2023-05-12T19:51:43.480Z,41.45
2023-05-12T19:54:28.952Z,41.42
2023-05-12T19:57:02.470Z,41.14
2023-05-12T19:59:31.229Z,40.83
2023-05-12T20:01:58.759Z,40.75
2023-05-12T20:04:27.259Z,40.58
2023-05-12T20:06:54.773Z,40.45
2023-05-12T20:09:24.795Z,40.48
2023-05-12T20:11:52.735Z,40.52
2023-05-12T20:14:20.306Z,40.98
2023-05-12T20:16:49.234Z,41.20
2023-05-12T20:19:17.168Z,41.29
2023-05-12T20:21:44.886Z,42.58
2023-05-12T20:24:12.228Z,42.94
2023-05-12T20:26:39.851Z,42.98
2023-05-12T20:29:07.314Z,43.14
2023-05-12T20:31:35.046Z,43.53
2023-05-12T20:34:04.177Z,43.44
2023-05-12T20:36:31.463Z,43.60
2023-05-12T20:38:58.920Z,43.94
2023-05-12T20:41:27.242Z,44.24
2023-05-12T20:43:54.832Z,44.15
2023-05-12T20:46:22.827Z,44.06
2023-05-12T20:48:50.415Z,44.09
2023-05-12T20:51:19.517Z,44.04
2023-05-12T20:53:47.214Z,43.92
2023-05-12T20:56:14.484Z,43.75
2023-05-12T20:58:42.044Z,43.59
2023-05-12T21:01:09.498Z,43.80
2023-05-12T21:03:37.317Z,44.20
2023-05-12T21:06:05.708Z,44.20
2023-05-12T21:08:34.710Z,44.43
2023-05-12T21:11:02.888Z,44.73
2023-05-12T21:13:30.379Z,44.79
2023-05-12T21:15:57.648Z,44.89
2023-05-12T21:18:25.237Z,44.94
2023-05-12T21:20:52.549Z,44.93
2023-05-12T21:23:20.111Z,45.12
2023-05-12T21:25:49.314Z,45.39
2023-05-12T21:28:16.869Z,45.35
2023-05-12T21:30:44.272Z,45.11
2023-05-12T21:33:11.969Z,45.15
2023-05-12T21:35:39.408Z,44.98
2023-05-12T21:38:08.635Z,44.93
2023-05-12T21:43:33.216Z,45.32
2023-05-12T21:46:03.351Z,45.33
2023-05-12T21:48:31.145Z,45.35
2023-05-12T21:50:59.468Z,45.76
2023-05-12T21:53:27.048Z,46.24
2023-05-12T21:55:54.859Z,46.30
2023-05-12T21:58:23.746Z,46.08
2023-05-12T22:00:52.964Z,46.47
2023-05-12T22:03:21.837Z,46.47
2023-05-12T22:05:50.169Z,46.08
2023-05-12T22:08:17.704Z,46.11
2023-05-12T22:10:44.935Z,45.89
2023-05-12T22:13:12.289Z,45.71
2023-05-12T22:15:39.890Z,45.45
2023-05-12T22:18:08.890Z,45.41
2023-05-12T22:20:36.450Z,45.40
2023-05-12T22:23:04.117Z,45.40
2023-05-12T22:25:31.599Z,45.56
2023-05-12T22:27:58.811Z,45.39
2023-05-12T22:30:26.195Z,45.88
2023-05-12T22:32:53.696Z,45.65
2023-05-12T22:35:22.679Z,46.07
2023-05-12T22:37:50.339Z,45.62
2023-05-12T22:40:17.763Z,45.77
2023-05-12T22:42:45.148Z,45.39
2023-05-12T22:45:12.682Z,45.46
2023-05-12T22:47:40.162Z,45.65
2023-05-12T22:50:08.147Z,45.31
2023-05-12T22:52:37.409Z,45.25
2023-05-12T22:55:05.364Z,44.98
2023-05-12T22:57:32.858Z,45.03
2023-05-12T23:00:00.117Z,45.33
2023-05-12T23:02:27.603Z,45.06
2023-05-12T23:04:55.006Z,45.23
2023-05-12T23:07:22.372Z,45.48
2023-05-12T23:09:51.025Z,45.46
2023-05-12T23:12:18.469Z,45.53
2023-05-12T23:14:45.877Z,45.59
2023-05-12T23:17:13.150Z,45.38
2023-05-12T23:19:41.006Z,45.20
2023-05-12T23:22:08.438Z,45.45
2023-05-12T23:24:36.193Z,45.74
2023-05-12T23:27:05.371Z,45.54
2023-05-12T23:29:34.611Z,45.65
2023-05-12T23:32:02.077Z,45.35
2023-05-12T23:34:29.432Z,46.07
2023-05-12T23:36:56.870Z,46.05
2023-05-12T23:39:24.430Z,45.98
2023-05-12T23:41:51.747Z,46.00
2023-05-12T23:44:20.701Z,45.89
2023-05-12T23:46:48.083Z,46.14
2023-05-12T23:49:15.783Z,46.50
2023-05-12T23:51:43.202Z,46.78
2023-05-12T23:54:10.944Z,46.50
2023-05-12T23:56:38.439Z,47.25
2023-05-12T23:59:05.816Z,46.92
